createdAt,value
2017-01-30T00:00:06.521Z,937.5
2017-01-30T00:00:35.034Z,937.52
2017-01-30T00:01:03.660Z,937.55
2017-01-30T00:01:32.237Z,937.5
2017-01-30T00:02:00.841Z,937.51
2017-01-30T00:02:29.519Z,937.53
2017-01-30T00:02:58.121Z,937.53
2017-01-30T00:03:26.712Z,937.54
2017-01-30T00:03:55.316Z,937.54
2017-01-30T00:04:23.907Z,937.54
2017-01-30T00:04:52.548Z,937.53
2017-01-30T00:05:21.163Z,937.54
2017-01-30T00:05:49.797Z,937.51
2017-01-30T00:06:18.330Z,937.51
2017-01-30T00:06:46.967Z,937.52
2017-01-30T00:07:15.836Z,937.53
2017-01-30T00:07:44.490Z,937.51
2017-01-30T00:08:13.123Z,937.52
2017-01-30T00:08:41.783Z,937.46
2017-01-30T00:09:10.406Z,937.5
2017-01-30T00:09:39.027Z,937.44
2017-01-30T00:10:07.655Z,937.49
2017-01-30T00:10:36.268Z,937.5
2017-01-30T00:11:04.802Z,937.48
2017-01-30T00:11:33.459Z,937.52
2017-01-30T00:12:02.084Z,937.5
2017-01-30T00:12:30.692Z,937.46
2017-01-30T00:12:59.320Z,937.5
2017-01-30T00:13:27.961Z,937.44
2017-01-30T00:13:56.590Z,937.51
2017-01-30T00:14:25.116Z,937.48
2017-01-30T00:14:53.714Z,937.52
2017-01-30T00:15:22.317Z,937.51
2017-01-30T00:15:50.949Z,937.48
2017-01-30T00:16:19.567Z,937.51
2017-01-30T00:16:48.185Z,937.47
2017-01-30T00:17:16.840Z,937.49
2017-01-30T00:17:45.364Z,937.48
2017-01-30T00:18:13.967Z,937.48
2017-01-30T00:18:42.605Z,937.48
2017-01-30T00:19:11.234Z,937.47
2017-01-30T00:19:39.780Z,937.47
2017-01-30T00:20:08.449Z,937.43
2017-01-30T00:20:36.971Z,937.48
2017-01-30T00:21:05.576Z,937.52
2017-01-30T00:21:34.228Z,937.46
2017-01-30T00:22:02.950Z,937.51
2017-01-30T00:22:31.578Z,937.42
2017-01-30T00:23:00.024Z,937.49
2017-01-30T00:23:28.650Z,937.53
2017-01-30T00:23:57.275Z,937.53
2017-01-30T00:24:25.868Z,937.57
2017-01-30T00:24:54.502Z,937.55
2017-01-30T00:25:22.948Z,937.52
2017-01-30T00:25:51.585Z,937.5
2017-01-30T00:26:20.082Z,937.53
2017-01-30T00:26:48.634Z,937.49
2017-01-30T00:27:17.173Z,937.52
2017-01-30T00:27:45.807Z,937.43
2017-01-30T00:28:14.404Z,937.46
2017-01-30T00:28:43.020Z,937.48
2017-01-30T00:29:11.691Z,937.49
2017-01-30T00:29:40.357Z,937.5
2017-01-30T00:30:08.869Z,937.48
2017-01-30T00:30:37.472Z,937.46
2017-01-30T00:31:06.088Z,937.51
2017-01-30T00:31:34.617Z,937.47
2017-01-30T00:32:03.233Z,937.5
2017-01-30T00:32:31.844Z,937.52
2017-01-30T00:33:00.359Z,937.5
2017-01-30T00:33:28.982Z,937.5
2017-01-30T00:33:57.615Z,937.48
2017-01-30T00:34:26.236Z,937.45
2017-01-30T00:34:54.860Z,937.45
2017-01-30T00:35:23.489Z,937.45
2017-01-30T00:35:52.032Z,937.45
2017-01-30T00:36:20.672Z,937.49
2017-01-30T00:36:49.321Z,937.46
2017-01-30T00:37:17.967Z,937.4
2017-01-30T00:37:46.576Z,937.44
2017-01-30T00:38:15.220Z,937.44
2017-01-30T00:38:43.852Z,937.47
2017-01-30T00:39:12.522Z,937.44
2017-01-30T00:39:41.151Z,937.42
2017-01-30T00:40:09.682Z,937.47
2017-01-30T00:40:38.337Z,937.45
2017-01-30T00:41:06.996Z,937.45
2017-01-30T00:41:35.547Z,937.49
2017-01-30T00:42:04.171Z,937.47
2017-01-30T00:42:32.714Z,937.51
2017-01-30T00:43:01.324Z,937.53
2017-01-30T00:43:29.871Z,937.56
2017-01-30T00:43:58.369Z,937.55
2017-01-30T00:44:26.933Z,937.52
2017-01-30T00:44:55.572Z,937.53
2017-01-30T00:45:24.137Z,937.6
2017-01-30T00:45:52.742Z,937.59
2017-01-30T00:46:21.258Z,937.59
2017-01-30T00:46:49.874Z,937.62
2017-01-30T00:47:18.483Z,937.62
2017-01-30T00:47:46.982Z,937.63
2017-01-30T00:48:15.588Z,937.62
2017-01-30T00:48:44.122Z,937.6
2017-01-30T00:49:12.753Z,937.65
2017-01-30T00:49:41.254Z,937.61
2017-01-30T00:50:09.851Z,937.57
2017-01-30T00:50:38.490Z,937.59
2017-01-30T00:51:07.136Z,937.62
2017-01-30T00:51:35.754Z,937.6
2017-01-30T00:52:04.358Z,937.64
2017-01-30T00:52:32.995Z,937.67
2017-01-30T00:53:01.621Z,937.59
2017-01-30T00:53:30.248Z,937.7
2017-01-30T00:53:58.842Z,937.68
2017-01-30T00:54:27.455Z,937.68
2017-01-30T00:54:55.960Z,937.69
2017-01-30T00:55:24.508Z,937.65
2017-01-30T00:55:53.111Z,937.67
2017-01-30T00:56:21.720Z,937.67
2017-01-30T00:56:50.333Z,937.69
2017-01-30T00:57:18.899Z,937.7
2017-01-30T00:57:47.518Z,937.7
2017-01-30T00:58:16.161Z,937.71
2017-01-30T00:58:44.769Z,937.7
2017-01-30T00:59:13.279Z,937.7
2017-01-30T00:59:41.839Z,937.71
2017-01-30T01:00:10.479Z,937.73
2017-01-30T01:00:39.101Z,937.69
2017-01-30T01:01:07.714Z,937.72
2017-01-30T01:01:36.344Z,937.68
2017-01-30T01:02:04.960Z,937.72
2017-01-30T01:02:33.472Z,937.73
2017-01-30T01:03:02.096Z,937.71
2017-01-30T01:03:30.729Z,937.72
2017-01-30T01:03:59.249Z,937.72
2017-01-30T01:04:27.788Z,937.74
2017-01-30T01:04:56.407Z,937.73
2017-01-30T01:05:24.931Z,937.73
2017-01-30T01:05:53.544Z,937.76
2017-01-30T01:06:22.238Z,937.76
2017-01-30T01:06:50.866Z,937.78
2017-01-30T01:07:19.460Z,937.73
2017-01-30T01:07:47.986Z,937.73
2017-01-30T01:08:16.532Z,937.74
2017-01-30T01:08:45.087Z,937.73
2017-01-30T01:09:13.614Z,937.75
2017-01-30T01:09:42.165Z,937.75
2017-01-30T01:10:10.698Z,937.77
2017-01-30T01:10:39.331Z,937.76
2017-01-30T01:11:07.932Z,937.77
2017-01-30T01:11:36.464Z,937.76
2017-01-30T01:12:05.081Z,937.74
2017-01-30T01:12:33.688Z,937.77
2017-01-30T01:13:02.308Z,937.74
2017-01-30T01:13:30.920Z,937.77
2017-01-30T01:13:59.543Z,937.8
2017-01-30T01:14:28.168Z,937.79
2017-01-30T01:14:56.779Z,937.84
2017-01-30T01:15:25.306Z,937.82
2017-01-30T01:15:53.931Z,937.82
2017-01-30T01:16:22.467Z,937.8
2017-01-30T01:16:51.105Z,937.84
2017-01-30T01:17:19.711Z,937.82
2017-01-30T01:17:48.341Z,937.85
2017-01-30T01:18:16.933Z,937.85
2017-01-30T01:18:45.554Z,937.9
2017-01-30T01:19:14.180Z,937.84
2017-01-30T01:19:42.813Z,937.84
2017-01-30T01:20:11.422Z,937.86
2017-01-30T01:20:40.041Z,937.84
2017-01-30T01:21:08.651Z,937.8
2017-01-30T01:21:37.172Z,937.85
2017-01-30T01:22:05.949Z,937.83
2017-01-30T01:22:34.419Z,937.82
2017-01-30T01:23:03.063Z,937.83
2017-01-30T01:23:31.684Z,937.82
2017-01-30T01:24:00.309Z,937.83
2017-01-30T01:24:28.834Z,937.79
2017-01-30T01:24:57.475Z,937.85
2017-01-30T01:25:26.063Z,937.84
2017-01-30T01:25:54.586Z,937.87
2017-01-30T01:26:23.092Z,937.87
2017-01-30T01:26:51.677Z,937.86
2017-01-30T01:27:20.279Z,937.85
2017-01-30T01:27:48.887Z,937.87
2017-01-30T01:28:17.497Z,937.88
2017-01-30T01:28:46.119Z,937.9
2017-01-30T01:29:14.668Z,937.87
2017-01-30T01:29:43.285Z,937.89
2017-01-30T01:30:11.739Z,937.84
2017-01-30T01:30:40.446Z,937.87
2017-01-30T01:31:08.955Z,937.86
2017-01-30T01:31:37.458Z,937.86
2017-01-30T01:32:06.084Z,937.85
2017-01-30T01:32:34.680Z,937.82
2017-01-30T01:33:03.299Z,937.83
2017-01-30T01:33:31.827Z,937.87
2017-01-30T01:34:00.452Z,937.88
2017-01-30T01:34:28.911Z,937.88
2017-01-30T01:34:57.539Z,937.87
2017-01-30T01:35:26.036Z,937.88
2017-01-30T01:35:54.676Z,937.87
2017-01-30T01:36:23.241Z,937.89
2017-01-30T01:36:51.840Z,937.89
2017-01-30T01:37:20.474Z,937.88
2017-01-30T01:37:49.048Z,937.94
2017-01-30T01:38:17.662Z,937.91
2017-01-30T01:38:46.235Z,937.93
2017-01-30T01:39:14.819Z,937.9
2017-01-30T01:39:43.424Z,937.89
2017-01-30T01:40:12.054Z,937.88
2017-01-30T01:40:40.567Z,937.89
2017-01-30T01:41:09.196Z,937.92
2017-01-30T01:41:37.805Z,937.93
2017-01-30T01:42:06.338Z,937.92
2017-01-30T01:42:34.984Z,937.93
2017-01-30T01:43:03.622Z,937.92
2017-01-30T01:43:32.226Z,937.92
2017-01-30T01:44:00.867Z,937.92
2017-01-30T01:44:29.515Z,937.9
2017-01-30T01:44:58.049Z,937.89
2017-01-30T01:45:26.680Z,937.88
2017-01-30T01:45:55.216Z,937.88
2017-01-30T01:46:23.812Z,937.83
2017-01-30T01:46:52.453Z,937.83
2017-01-30T01:47:21.103Z,937.8
2017-01-30T01:47:49.603Z,937.82
2017-01-30T01:48:18.063Z,937.76
2017-01-30T01:48:46.691Z,937.76
2017-01-30T01:49:15.262Z,937.77
2017-01-30T01:49:43.870Z,937.72
2017-01-30T01:50:12.487Z,937.73
2017-01-30T01:50:41.095Z,937.74
2017-01-30T01:51:09.721Z,937.75
2017-01-30T01:51:38.347Z,937.79
2017-01-30T01:52:06.903Z,937.8
2017-01-30T01:52:35.547Z,937.75
2017-01-30T01:53:04.146Z,937.81
2017-01-30T01:53:32.758Z,937.8
2017-01-30T01:54:01.362Z,937.81
2017-01-30T01:54:29.970Z,937.76
2017-01-30T01:54:58.589Z,937.77
2017-01-30T01:55:27.215Z,937.78
2017-01-30T01:55:55.851Z,937.79
2017-01-30T01:56:24.351Z,937.77
2017-01-30T01:56:52.954Z,937.78
2017-01-30T01:57:21.573Z,937.77
2017-01-30T01:57:50.195Z,937.78
2017-01-30T01:58:18.818Z,937.75
2017-01-30T01:58:47.453Z,937.77
2017-01-30T01:59:16.092Z,937.73
2017-01-30T01:59:44.655Z,937.72
2017-01-30T02:00:13.272Z,937.72
2017-01-30T02:00:41.875Z,937.73
2017-01-30T02:01:10.483Z,937.73
2017-01-30T02:01:39.012Z,937.77
2017-01-30T02:02:07.644Z,937.78
2017-01-30T02:02:36.172Z,937.79
2017-01-30T02:03:04.800Z,937.79
2017-01-30T02:03:33.394Z,937.77
2017-01-30T02:04:02.000Z,937.83
2017-01-30T02:04:30.668Z,937.81
2017-01-30T02:04:59.285Z,937.78
2017-01-30T02:05:27.919Z,937.82
2017-01-30T02:05:56.465Z,937.81
2017-01-30T02:06:25.100Z,937.8
2017-01-30T02:06:53.721Z,937.8
2017-01-30T02:07:22.368Z,937.81
2017-01-30T02:07:50.984Z,937.77
2017-01-30T02:08:19.579Z,937.82
2017-01-30T02:08:48.014Z,937.83
2017-01-30T02:09:16.625Z,937.81
2017-01-30T02:09:45.167Z,937.87
2017-01-30T02:10:13.756Z,937.8
2017-01-30T02:10:42.385Z,937.78
2017-01-30T02:11:11.007Z,937.79
2017-01-30T02:11:39.626Z,937.8
2017-01-30T02:12:08.229Z,937.77
2017-01-30T02:12:36.749Z,937.8
2017-01-30T02:13:05.362Z,937.76
2017-01-30T02:13:33.978Z,937.75
2017-01-30T02:14:02.576Z,937.75
2017-01-30T02:14:31.042Z,937.76
2017-01-30T02:14:59.680Z,937.7
2017-01-30T02:15:28.296Z,937.67
2017-01-30T02:15:56.924Z,937.71
2017-01-30T02:16:25.541Z,937.72
2017-01-30T02:16:54.144Z,937.67
2017-01-30T02:17:22.671Z,937.66
2017-01-30T02:17:51.287Z,937.7
2017-01-30T02:18:19.916Z,937.7
2017-01-30T02:18:48.438Z,937.71
2017-01-30T02:19:16.981Z,937.68
2017-01-30T02:19:45.641Z,937.71
2017-01-30T02:20:14.190Z,937.68
2017-01-30T02:20:42.825Z,937.69
2017-01-30T02:21:11.442Z,937.67
2017-01-30T02:21:40.038Z,937.65
2017-01-30T02:22:08.654Z,937.67
2017-01-30T02:22:37.279Z,937.66
2017-01-30T02:23:05.902Z,937.64
2017-01-30T02:23:34.520Z,937.63
2017-01-30T02:24:03.138Z,937.68
2017-01-30T02:24:31.743Z,937.64
2017-01-30T02:25:00.360Z,937.64
2017-01-30T02:25:28.902Z,937.59
2017-01-30T02:25:57.528Z,937.63
2017-01-30T02:26:26.060Z,937.61
2017-01-30T02:26:55.007Z,937.62
2017-01-30T02:27:23.599Z,937.6
2017-01-30T02:27:52.228Z,937.59
2017-01-30T02:28:20.832Z,937.56
2017-01-30T02:28:49.338Z,937.58
2017-01-30T02:29:17.935Z,937.59
2017-01-30T02:29:46.560Z,937.57
2017-01-30T02:30:15.183Z,937.59
2017-01-30T02:30:43.733Z,937.58
2017-01-30T02:31:12.368Z,937.54
2017-01-30T02:31:40.909Z,937.57
2017-01-30T02:32:09.505Z,937.56
2017-01-30T02:32:38.097Z,937.53
2017-01-30T02:33:06.713Z,937.54
2017-01-30T02:33:35.248Z,937.57
2017-01-30T02:34:03.868Z,937.54
2017-01-30T02:34:32.476Z,937.55
2017-01-30T02:35:00.893Z,937.54
2017-01-30T02:35:29.428Z,937.54
2017-01-30T02:35:58.047Z,937.57
2017-01-30T02:36:26.658Z,937.54
2017-01-30T02:36:55.265Z,937.59
2017-01-30T02:37:23.887Z,937.56
2017-01-30T02:37:52.490Z,937.55
2017-01-30T02:38:21.118Z,937.51
2017-01-30T02:38:49.681Z,937.57
2017-01-30T02:39:18.318Z,937.57
2017-01-30T02:39:46.831Z,937.57
2017-01-30T02:40:15.435Z,937.47
2017-01-30T02:40:44.064Z,937.51
2017-01-30T02:41:12.722Z,937.5
2017-01-30T02:41:41.227Z,937.51
2017-01-30T02:42:09.853Z,937.48
2017-01-30T02:42:38.439Z,937.49
2017-01-30T02:43:06.952Z,937.51
2017-01-30T02:43:35.551Z,937.45
2017-01-30T02:44:04.172Z,937.43
2017-01-30T02:44:32.816Z,937.41
2017-01-30T02:45:01.418Z,937.39
2017-01-30T02:45:30.033Z,937.43
2017-01-30T02:45:58.657Z,937.41
2017-01-30T02:46:27.278Z,937.36
2017-01-30T02:46:55.891Z,937.35
2017-01-30T02:47:24.518Z,937.33
2017-01-30T02:47:53.149Z,937.36
2017-01-30T02:48:21.791Z,937.37
2017-01-30T02:48:50.415Z,937.32
2017-01-30T02:49:18.927Z,937.38
2017-01-30T02:49:47.565Z,937.37
2017-01-30T02:50:16.158Z,937.34
2017-01-30T02:50:44.770Z,937.34
2017-01-30T02:51:13.301Z,937.36
2017-01-30T02:51:41.952Z,937.33
2017-01-30T02:52:10.484Z,937.32
2017-01-30T02:52:39.136Z,937.28
2017-01-30T02:53:07.716Z,937.29
2017-01-30T02:53:36.322Z,937.3
2017-01-30T02:54:04.954Z,937.3
2017-01-30T02:54:33.495Z,937.31
2017-01-30T02:55:02.103Z,937.26
2017-01-30T02:55:30.729Z,937.29
2017-01-30T02:55:59.359Z,937.28
2017-01-30T02:56:27.976Z,937.26
2017-01-30T02:56:56.596Z,937.24
2017-01-30T02:57:25.206Z,937.23
2017-01-30T02:57:53.831Z,937.27
2017-01-30T02:58:22.369Z,937.27
2017-01-30T02:58:50.998Z,937.25
2017-01-30T02:59:19.583Z,937.28
2017-01-30T02:59:48.115Z,937.22
2017-01-30T03:00:16.731Z,937.26
2017-01-30T03:00:45.382Z,937.3
2017-01-30T03:01:14.866Z,937.22
2017-01-30T03:01:43.567Z,937.25
2017-01-30T03:02:12.115Z,937.22
2017-01-30T03:02:40.654Z,937.23
2017-01-30T03:03:09.264Z,937.22
2017-01-30T03:03:37.891Z,937.22
2017-01-30T03:04:06.509Z,937.21
2017-01-30T03:04:35.119Z,937.21
2017-01-30T03:05:03.792Z,937.26
2017-01-30T03:05:32.411Z,937.26
2017-01-30T03:06:01.021Z,937.24
2017-01-30T03:06:29.668Z,937.21
2017-01-30T03:06:58.286Z,937.23
2017-01-30T03:07:26.942Z,937.21
2017-01-30T03:07:55.497Z,937.23
2017-01-30T03:08:23.939Z,937.25
2017-01-30T03:08:52.556Z,937.2
2017-01-30T03:09:21.185Z,937.23
2017-01-30T03:09:49.791Z,937.21
2017-01-30T03:10:18.284Z,937.24
2017-01-30T03:10:46.931Z,937.23
2017-01-30T03:11:15.578Z,937.23
2017-01-30T03:11:44.134Z,937.23
2017-01-30T03:12:12.743Z,937.25
2017-01-30T03:12:41.391Z,937.27
2017-01-30T03:13:10.044Z,937.24
2017-01-30T03:13:38.671Z,937.24
2017-01-30T03:14:07.296Z,937.25
2017-01-30T03:14:35.816Z,937.29
2017-01-30T03:15:04.322Z,937.31
2017-01-30T03:15:32.948Z,937.34
2017-01-30T03:16:01.575Z,937.32
2017-01-30T03:16:30.351Z,937.36
2017-01-30T03:16:58.862Z,937.33
2017-01-30T03:17:27.479Z,937.31
2017-01-30T03:17:56.069Z,937.31
2017-01-30T03:18:24.616Z,937.32
2017-01-30T03:18:53.250Z,937.32
2017-01-30T03:19:21.783Z,937.33
2017-01-30T03:19:50.381Z,937.32
2017-01-30T03:20:18.987Z,937.3
2017-01-30T03:20:47.622Z,937.26
2017-01-30T03:21:16.243Z,937.28
2017-01-30T03:21:44.857Z,937.31
2017-01-30T03:22:13.375Z,937.28
2017-01-30T03:22:41.976Z,937.27
2017-01-30T03:23:10.482Z,937.28
2017-01-30T03:23:39.078Z,937.24
2017-01-30T03:24:07.697Z,937.21
2017-01-30T03:24:36.301Z,937.23
2017-01-30T03:25:04.887Z,937.22
2017-01-30T03:25:33.493Z,937.17
2017-01-30T03:26:02.111Z,937.21
2017-01-30T03:26:30.528Z,937.17
2017-01-30T03:26:59.156Z,937.16
2017-01-30T03:27:27.754Z,937.16
2017-01-30T03:27:56.410Z,937.17
2017-01-30T03:28:24.847Z,937.12
2017-01-30T03:28:53.504Z,937.13
2017-01-30T03:29:22.045Z,937.11
2017-01-30T03:29:50.660Z,937.1
2017-01-30T03:30:19.169Z,937.07
2017-01-30T03:30:47.751Z,937.07
2017-01-30T03:31:16.299Z,937.03
2017-01-30T03:31:44.822Z,937.09
2017-01-30T03:32:13.457Z,937.08
2017-01-30T03:32:42.062Z,937.07
2017-01-30T03:33:10.593Z,937.07
2017-01-30T03:33:39.228Z,937.04
2017-01-30T03:34:07.850Z,937.03
2017-01-30T03:34:36.460Z,937.01
2017-01-30T03:35:05.086Z,937.02
2017-01-30T03:35:33.691Z,937.04
2017-01-30T03:36:02.319Z,936.99
2017-01-30T03:36:30.861Z,936.96
2017-01-30T03:36:59.477Z,936.92
2017-01-30T03:37:28.102Z,936.92
2017-01-30T03:37:56.749Z,936.88
2017-01-30T03:38:25.164Z,936.87
2017-01-30T03:38:53.775Z,936.88
2017-01-30T03:39:22.421Z,936.86
2017-01-30T03:39:51.044Z,936.82
2017-01-30T03:40:19.647Z,936.84
2017-01-30T03:40:48.262Z,936.82
2017-01-30T03:41:16.875Z,936.84
2017-01-30T03:41:45.472Z,936.82
2017-01-30T03:42:14.004Z,936.8
2017-01-30T03:42:42.612Z,936.85
2017-01-30T03:43:11.145Z,936.84
2017-01-30T03:43:39.759Z,936.81
2017-01-30T03:44:08.385Z,936.84
2017-01-30T03:44:37.010Z,936.86
2017-01-30T03:45:05.648Z,936.82
2017-01-30T03:45:34.271Z,936.78
2017-01-30T03:46:02.886Z,936.79
2017-01-30T03:46:31.522Z,936.75
2017-01-30T03:47:00.134Z,936.81
2017-01-30T03:47:28.660Z,936.76
2017-01-30T03:47:57.256Z,936.78
2017-01-30T03:48:25.786Z,936.75
2017-01-30T03:48:54.415Z,936.72
2017-01-30T03:49:26.186Z,936.69
2017-01-30T03:49:54.784Z,936.67
2017-01-30T03:50:23.394Z,936.66
2017-01-30T03:50:52.029Z,936.67
2017-01-30T03:51:20.811Z,936.66
2017-01-30T03:51:49.429Z,936.68
2017-01-30T03:52:18.051Z,936.62
2017-01-30T03:52:46.671Z,936.65
2017-01-30T03:53:15.300Z,936.61
2017-01-30T03:53:43.931Z,936.59
2017-01-30T03:54:12.546Z,936.62
2017-01-30T03:54:41.174Z,936.6
2017-01-30T03:55:09.812Z,936.59
2017-01-30T03:55:38.440Z,936.64
2017-01-30T03:56:07.063Z,936.59
2017-01-30T03:56:35.580Z,936.61
2017-01-30T03:57:04.207Z,936.57
2017-01-30T03:57:32.733Z,936.59
2017-01-30T03:58:01.332Z,936.55
2017-01-30T03:58:29.759Z,936.57
2017-01-30T03:58:58.407Z,936.59
2017-01-30T03:59:27.017Z,936.54
2017-01-30T03:59:55.663Z,936.54
2017-01-30T04:00:24.186Z,936.56
2017-01-30T04:00:52.822Z,936.59
2017-01-30T04:01:21.432Z,936.59
2017-01-30T04:01:50.026Z,936.56
2017-01-30T04:02:18.623Z,936.56
2017-01-30T04:02:47.235Z,936.57
2017-01-30T04:03:15.769Z,936.52
2017-01-30T04:03:44.371Z,936.55
2017-01-30T04:04:12.885Z,936.57
2017-01-30T04:04:41.395Z,936.52
2017-01-30T04:05:09.986Z,936.54
2017-01-30T04:05:38.610Z,936.56
2017-01-30T04:06:07.248Z,936.53
2017-01-30T04:06:35.987Z,936.52
2017-01-30T04:07:04.584Z,936.52
2017-01-30T04:07:33.238Z,936.55
2017-01-30T04:08:01.843Z,936.51
2017-01-30T04:08:30.374Z,936.54
2017-01-30T04:08:58.979Z,936.5
2017-01-30T04:09:27.617Z,936.51
2017-01-30T04:09:56.155Z,936.51
2017-01-30T04:10:24.671Z,936.46
2017-01-30T04:10:53.325Z,936.52
2017-01-30T04:11:21.913Z,936.5
2017-01-30T04:11:50.512Z,936.5
2017-01-30T04:12:19.045Z,936.45
2017-01-30T04:12:47.653Z,936.48
2017-01-30T04:13:16.312Z,936.46
2017-01-30T04:13:44.962Z,936.48
2017-01-30T04:14:13.582Z,936.48
2017-01-30T04:14:42.117Z,936.42
2017-01-30T04:15:10.772Z,936.41
2017-01-30T04:15:45.268Z,936.5
2017-01-30T04:16:14.232Z,936.49
2017-01-30T04:16:42.764Z,936.47
2017-01-30T04:17:11.356Z,936.46
2017-01-30T04:17:40.009Z,936.47
2017-01-30T04:18:08.639Z,936.45
2017-01-30T04:18:37.247Z,936.45
2017-01-30T04:19:05.886Z,936.46
2017-01-30T04:19:34.508Z,936.44
2017-01-30T04:20:05.701Z,936.42
2017-01-30T04:20:34.302Z,936.42
2017-01-30T04:21:02.924Z,936.41
2017-01-30T04:21:31.467Z,936.43
2017-01-30T04:21:59.974Z,936.41
2017-01-30T04:22:28.629Z,936.4
2017-01-30T04:22:57.228Z,936.41
2017-01-30T04:23:25.870Z,936.38
2017-01-30T04:23:54.486Z,936.4
2017-01-30T04:24:23.113Z,936.4
2017-01-30T04:24:51.736Z,936.39
2017-01-30T04:25:20.349Z,936.37
2017-01-30T04:25:48.979Z,936.36
2017-01-30T04:26:17.632Z,936.39
2017-01-30T04:26:46.358Z,936.38
2017-01-30T04:27:15.001Z,936.38
2017-01-30T04:27:43.639Z,936.35
2017-01-30T04:28:12.252Z,936.38
2017-01-30T04:28:40.875Z,936.35
2017-01-30T04:29:09.533Z,936.36
2017-01-30T04:29:38.155Z,936.34
2017-01-30T04:30:06.767Z,936.37
2017-01-30T04:30:35.312Z,936.38
2017-01-30T04:31:03.900Z,936.36
2017-01-30T04:31:32.519Z,936.37
2017-01-30T04:32:01.112Z,936.41
2017-01-30T04:32:29.637Z,936.36
2017-01-30T04:32:58.291Z,936.36
2017-01-30T04:33:26.929Z,936.38
2017-01-30T04:33:55.559Z,936.38
2017-01-30T04:34:24.097Z,936.4
2017-01-30T04:34:52.720Z,936.4
2017-01-30T04:35:21.340Z,936.39
2017-01-30T04:35:49.942Z,936.38
2017-01-30T04:36:18.537Z,936.37
2017-01-30T04:36:47.296Z,936.39
2017-01-30T04:37:16.159Z,936.38
2017-01-30T04:37:44.801Z,936.35
2017-01-30T04:38:13.414Z,936.36
2017-01-30T04:38:42.027Z,936.37
2017-01-30T04:39:10.658Z,936.33
2017-01-30T04:39:39.305Z,936.35
2017-01-30T04:40:07.949Z,936.29
2017-01-30T04:40:36.470Z,936.3
2017-01-30T04:41:04.992Z,936.32
2017-01-30T04:41:33.641Z,936.3
2017-01-30T04:42:02.271Z,936.28
2017-01-30T04:42:30.910Z,936.29
2017-01-30T04:42:59.522Z,936.28
2017-01-30T04:43:28.044Z,936.3
2017-01-30T04:43:56.659Z,936.24
2017-01-30T04:44:25.290Z,936.26
2017-01-30T04:44:55.768Z,936.25
2017-01-30T04:45:24.379Z,936.22
2017-01-30T04:45:53.011Z,936.24
2017-01-30T04:46:21.732Z,936.21
2017-01-30T04:46:50.353Z,936.22
2017-01-30T04:47:18.987Z,936.18
2017-01-30T04:47:47.640Z,936.23
2017-01-30T04:48:16.243Z,936.22
2017-01-30T04:48:44.888Z,936.22
2017-01-30T04:49:13.395Z,936.21
2017-01-30T04:49:42.121Z,936.23
2017-01-30T04:50:10.665Z,936.2
2017-01-30T04:50:39.300Z,936.2
2017-01-30T04:51:07.918Z,936.18
2017-01-30T04:51:36.670Z,936.14
2017-01-30T04:52:05.310Z,936.15
2017-01-30T04:52:33.953Z,936.16
2017-01-30T04:53:02.626Z,936.15
2017-01-30T04:53:31.248Z,936.16
2017-01-30T04:53:59.884Z,936.12
2017-01-30T04:54:28.503Z,936.13
2017-01-30T04:54:57.124Z,936.14
2017-01-30T04:55:25.825Z,936.12
2017-01-30T04:55:54.409Z,936.09
2017-01-30T04:56:23.031Z,936.08
2017-01-30T04:56:51.646Z,936.08
2017-01-30T04:57:20.294Z,936.07
2017-01-30T04:57:48.864Z,936.06
2017-01-30T04:58:17.477Z,936.09
2017-01-30T04:58:46.103Z,936.06
2017-01-30T04:59:14.726Z,936.03
2017-01-30T04:59:43.348Z,936.06
2017-01-30T05:00:11.971Z,936.05
2017-01-30T05:00:40.588Z,936.04
2017-01-30T05:01:09.225Z,936.04
2017-01-30T05:01:37.851Z,936.04
2017-01-30T05:02:06.355Z,936.07
2017-01-30T05:02:34.887Z,936.03
2017-01-30T05:03:03.496Z,936.06
2017-01-30T05:03:32.140Z,936.06
2017-01-30T05:04:00.684Z,936.04
2017-01-30T05:04:29.215Z,936.03
2017-01-30T05:04:57.837Z,936.06
2017-01-30T05:05:26.476Z,936.07
2017-01-30T05:05:55.085Z,936.03
2017-01-30T05:06:23.604Z,936.03
2017-01-30T05:06:52.110Z,936.05
2017-01-30T05:07:20.715Z,936.05
2017-01-30T05:07:49.315Z,936.04
2017-01-30T05:08:17.939Z,936.05
2017-01-30T05:08:46.529Z,936.04
2017-01-30T05:09:15.056Z,936.03
2017-01-30T05:09:43.655Z,936.04
2017-01-30T05:10:12.273Z,936.05
2017-01-30T05:10:40.882Z,936.05
2017-01-30T05:11:09.494Z,936.03
2017-01-30T05:11:38.107Z,936.02
2017-01-30T05:12:06.638Z,936.01
2017-01-30T05:12:35.280Z,936.01
2017-01-30T05:13:03.899Z,936.05
2017-01-30T05:13:32.509Z,936.02
2017-01-30T05:14:01.114Z,936.04
2017-01-30T05:14:29.626Z,936.05
2017-01-30T05:14:58.260Z,936.03
2017-01-30T05:15:26.851Z,936
2017-01-30T05:15:55.473Z,936.03
2017-01-30T05:16:23.997Z,935.99
2017-01-30T05:16:52.624Z,936.01
2017-01-30T05:17:21.232Z,936.01
2017-01-30T05:17:49.877Z,935.99
2017-01-30T05:18:18.221Z,935.98
2017-01-30T05:18:46.861Z,935.99
2017-01-30T05:19:15.468Z,935.97
2017-01-30T05:19:44.053Z,935.92
2017-01-30T05:20:12.670Z,935.96
2017-01-30T05:20:41.277Z,935.93
2017-01-30T05:21:09.877Z,935.93
2017-01-30T05:21:38.608Z,935.95
2017-01-30T05:22:07.220Z,935.95
2017-01-30T05:22:35.829Z,935.93
2017-01-30T05:23:04.417Z,935.92
2017-01-30T05:23:33.042Z,935.96
2017-01-30T05:24:01.654Z,935.95
2017-01-30T05:24:30.186Z,935.96
2017-01-30T05:24:58.786Z,935.95
2017-01-30T05:25:27.398Z,935.98
2017-01-30T05:25:56.041Z,935.93
2017-01-30T05:26:24.547Z,935.91
2017-01-30T05:26:53.169Z,935.91
2017-01-30T05:27:21.807Z,935.9
2017-01-30T05:27:50.442Z,935.89
2017-01-30T05:28:19.045Z,935.89
2017-01-30T05:28:47.664Z,935.89
2017-01-30T05:29:16.261Z,935.94
2017-01-30T05:29:44.896Z,935.92
2017-01-30T05:30:13.509Z,935.89
2017-01-30T05:30:42.018Z,935.91
2017-01-30T05:31:10.631Z,935.89
2017-01-30T05:31:39.141Z,935.91
2017-01-30T05:32:07.746Z,935.89
2017-01-30T05:32:36.408Z,935.93
2017-01-30T05:33:05.003Z,935.89
2017-01-30T05:33:33.536Z,935.91
2017-01-30T05:34:02.154Z,935.88
2017-01-30T05:34:30.769Z,935.93
2017-01-30T05:34:59.421Z,935.91
2017-01-30T05:35:28.059Z,935.93
2017-01-30T05:35:56.693Z,935.87
2017-01-30T05:36:25.150Z,935.87
2017-01-30T05:36:53.745Z,935.88
2017-01-30T05:37:22.360Z,935.85
2017-01-30T05:37:50.886Z,935.86
2017-01-30T05:38:19.493Z,935.86
2017-01-30T05:38:48.024Z,935.84
2017-01-30T05:39:16.665Z,935.89
2017-01-30T05:39:45.266Z,935.85
2017-01-30T05:40:13.829Z,935.82
2017-01-30T05:40:42.454Z,935.83
2017-01-30T05:41:11.070Z,935.82
2017-01-30T05:41:40.090Z,935.82
2017-01-30T05:42:08.691Z,935.81
2017-01-30T05:42:37.345Z,935.8
2017-01-30T05:43:05.970Z,935.83
2017-01-30T05:43:34.489Z,935.79
2017-01-30T05:44:03.092Z,935.8
2017-01-30T05:44:31.722Z,935.8
2017-01-30T05:45:00.360Z,935.8
2017-01-30T05:45:28.874Z,935.76
2017-01-30T05:45:57.487Z,935.79
2017-01-30T05:46:26.114Z,935.77
2017-01-30T05:46:54.752Z,935.79
2017-01-30T05:47:23.391Z,935.78
2017-01-30T05:47:52.040Z,935.77
2017-01-30T05:48:20.542Z,935.78
2017-01-30T05:48:49.133Z,935.79
2017-01-30T05:49:17.648Z,935.79
2017-01-30T05:49:46.275Z,935.77
2017-01-30T05:50:14.816Z,935.81
2017-01-30T05:50:43.332Z,935.8
2017-01-30T05:51:11.945Z,935.79
2017-01-30T05:51:40.482Z,935.78
2017-01-30T05:52:09.115Z,935.82
2017-01-30T05:52:37.626Z,935.81
2017-01-30T05:53:06.262Z,935.78
2017-01-30T05:53:34.866Z,935.83
2017-01-30T05:54:03.451Z,935.76
2017-01-30T05:54:32.064Z,935.79
2017-01-30T05:55:00.690Z,935.81
2017-01-30T05:55:29.281Z,935.77
2017-01-30T05:55:57.889Z,935.79
2017-01-30T05:56:26.399Z,935.8
2017-01-30T05:56:54.938Z,935.78
2017-01-30T05:57:23.488Z,935.79
2017-01-30T05:57:52.114Z,935.79